TimeEST,TemperatureF,Dew PointF,Humidity,Sea Level PressureIn,VisibilityMPH,Wind Direction,Wind SpeedMPH,Gust SpeedMPH,PrecipitationIn,Events,Conditions,WindDirDegrees,DateUTC
12:52 AM,-11.0,-17.0,75,30.34,10.0,Calm,Calm,-,N/A,,Clear,0,2013-02-10 05:52:00
1:52 AM,-14.1,-18.9,79,30.35,10.0,Calm,Calm,-,N/A,,Clear,0,2013-02-10 06:52:00
2:52 AM,-18.9,-23.1,81,30.37,10.0,Calm,Calm,-,N/A,,Clear,0,2013-02-10 07:52:00
3:52 AM,-18.9,-25.1,74,30.38,10.0,Calm,Calm,-,N/A,,Clear,0,2013-02-10 08:52:00
4:52 AM,-20.9,-27.0,73,30.40,10.0,Calm,Calm,-,N/A,,Clear,0,2013-02-10 09:52:00
5:52 AM,-22.0,-29.0,70,30.42,10.0,Calm,Calm,-,N/A,,Clear,0,2013-02-10 10:52:00
6:52 AM,-20.9,-27.9,70,30.45,10.0,Calm,Calm,-,N/A,,Clear,0,2013-02-10 11:52:00
7:52 AM,-20.0,-24.0,82,30.47,10.0,Calm,Calm,-,N/A,,Clear,0,2013-02-10 12:52:00
8:52 AM,-9.9,-14.1,82,30.48,10.0,Calm,Calm,-,N/A,,Clear,0,2013-02-10 13:52:00
9:52 AM,3.9,-0.9,80,30.47,9.0,Calm,Calm,-,N/A,,Clear,0,2013-02-10 14:52:00
10:52 AM,14.0,-6.0,41,30.47,10.0,Calm,Calm,-,N/A,,Clear,0,2013-02-10 15:52:00
11:52 AM,19.9,-2.0,38,30.45,10.0,Calm,Calm,-,N/A,,Clear,0,2013-02-10 16:52:00
12:52 PM,21.9,-0.0,38,30.43,10.0,Calm,Calm,-,N/A,,Clear,0,2013-02-10 17:52:00
1:52 PM,25.0,-0.0,34,30.40,10.0,Calm,Calm,-,N/A,,Clear,0,2013-02-10 18:52:00
2:52 PM,27.0,1.0,33,30.40,10.0,Calm,Calm,-,N/A,,Clear,0,2013-02-10 19:52:00
3:52 PM,25.0,3.0,39,30.40,10.0,Calm,Calm,-,N/A,,Clear,0,2013-02-10 20:52:00
4:52 PM,19.0,10.9,71,30.42,10.0,Calm,Calm,-,N/A,,Clear,0,2013-02-10 21:52:00
5:52 PM,12.9,9.0,84,30.42,10.0,Calm,Calm,-,N/A,,Clear,0,2013-02-10 22:52:00
6:52 PM,8.1,3.9,83,30.42,10.0,Calm,Calm,-,N/A,,Clear,0,2013-02-10 23:52:00
7:52 PM,3.9,-0.9,80,30.41,10.0,Calm,Calm,-,N/A,,Clear,0,2013-02-11 00:52:00
8:52 PM,3.0,-2.9,76,30.39,10.0,Calm,Calm,-,N/A,,Clear,0,2013-02-11 01:52:00
9:52 PM,-0.9,-7.1,75,30.37,10.0,Calm,Calm,-,N/A,,Clear,0,2013-02-11 02:52:00
10:52 PM,-2.9,-8.0,79,30.36,10.0,Calm,Calm,-,N/A,,Clear,0,2013-02-11 03:52:00
11:52 PM,-4.0,-9.0,79,30.35,10.0,Calm,Calm,-,N/A,,Clear,0,2013-02-11 04:52:00